createdAt,value
2023-02-13T00:01:18.679Z,15.3
2023-02-13T00:03:18.826Z,15.4
2023-02-13T00:05:18.654Z,15.5
2023-02-13T00:07:18.689Z,15.5
2023-02-13T00:09:18.619Z,15.4
2023-02-13T00:11:18.594Z,15.4
2023-02-13T00:13:18.595Z,15.4
2023-02-13T00:15:18.643Z,15.3
2023-02-13T00:17:18.591Z,15.4
2023-02-13T00:19:18.607Z,15.3
2023-02-13T00:21:18.748Z,15.3
2023-02-13T00:23:21.120Z,15.3
2023-02-13T00:25:18.600Z,15.2
2023-02-13T00:27:18.605Z,15.2
2023-02-13T00:29:19.650Z,15.2
2023-02-13T00:31:18.729Z,15.1
2023-02-13T00:33:19.636Z,14.9
2023-02-13T00:35:19.981Z,15.1
2023-02-13T00:37:18.564Z,14.9
2023-02-13T00:39:18.626Z,14.9
2023-02-13T00:41:18.557Z,14.8
2023-02-13T00:43:20.283Z,14.7
2023-02-13T00:45:18.552Z,14.7
2023-02-13T00:47:18.536Z,14.8
2023-02-13T00:49:20.049Z,14.7
2023-02-13T00:51:18.656Z,14.6
2023-02-13T00:53:18.548Z,14.6
2023-02-13T00:55:18.694Z,14.5
2023-02-13T00:57:18.643Z,14.4
2023-02-13T00:59:19.446Z,14.7
2023-02-13T01:01:18.833Z,14.7
2023-02-13T01:03:18.582Z,14.9
2023-02-13T01:05:42.564Z,14.7
2023-02-13T01:07:24.554Z,14.6
2023-02-13T01:09:18.604Z,14.5
2023-02-13T01:11:18.575Z,14.3
2023-02-13T01:13:19.613Z,14.2
2023-02-13T01:15:18.584Z,14.3
2023-02-13T01:17:18.780Z,14.4
2023-02-13T01:19:19.887Z,14.6
2023-02-13T01:21:18.550Z,14.2
2023-02-13T01:23:18.505Z,14.4
2023-02-13T01:25:18.523Z,14.1
2023-02-13T01:27:18.488Z,14.3
2023-02-13T01:29:18.477Z,14
2023-02-13T01:31:20.068Z,14.3
2023-02-13T01:33:18.541Z,13.9
2023-02-13T01:35:18.515Z,13.9
2023-02-13T01:37:18.585Z,13.8
2023-02-13T01:39:19.611Z,13.8
2023-02-13T01:41:18.545Z,13.7
2023-02-13T01:43:18.564Z,13.9
2023-02-13T01:45:18.489Z,13.8
2023-02-13T01:47:18.536Z,13.7
2023-02-13T01:49:18.397Z,13.7
2023-02-13T01:51:18.453Z,13.7
2023-02-13T01:53:18.473Z,13.7
2023-02-13T01:55:18.449Z,13.7
2023-02-13T01:57:18.481Z,13.8
2023-02-13T01:59:18.511Z,13.5
2023-02-13T02:01:18.472Z,13.2
2023-02-13T02:03:18.459Z,13
2023-02-13T02:05:18.454Z,12.9
2023-02-13T02:07:18.470Z,12.8
2023-02-13T02:09:18.459Z,12.9
2023-02-13T02:11:18.446Z,12.8
2023-02-13T02:13:18.589Z,13.1
2023-02-13T02:15:18.417Z,12.9
2023-02-13T02:17:18.461Z,12.8
2023-02-13T02:19:18.492Z,12.8
2023-02-13T02:21:18.441Z,12.8
2023-02-13T02:23:18.413Z,12.8
2023-02-13T02:25:18.416Z,12.7
2023-02-13T02:27:18.394Z,13
2023-02-13T02:29:18.429Z,12.8
2023-02-13T02:31:18.542Z,12.8
2023-02-13T02:33:18.411Z,12.4
2023-02-13T02:35:18.419Z,12.4
2023-02-13T02:37:18.948Z,12.2
2023-02-13T02:39:18.432Z,12.2
2023-02-13T02:41:18.438Z,12.1
2023-02-13T02:43:18.493Z,12.2
2023-02-13T02:45:21.940Z,12.1
2023-02-13T02:47:18.451Z,12
2023-02-13T02:49:18.387Z,12.1
2023-02-13T02:51:18.369Z,11.9
2023-02-13T02:53:18.378Z,11.7
2023-02-13T02:55:18.471Z,11.9
2023-02-13T02:57:18.382Z,12
2023-02-13T02:59:18.413Z,12.2
2023-02-13T03:01:18.414Z,12.1
2023-02-13T03:03:18.372Z,12.1
2023-02-13T03:05:18.456Z,11.8
2023-02-13T03:07:18.424Z,11.5
2023-02-13T03:09:18.354Z,11.5
2023-02-13T03:11:18.404Z,11.5
2023-02-13T03:13:18.372Z,11.5
2023-02-13T03:15:19.440Z,11.5
2023-02-13T03:17:18.416Z,11.5
2023-02-13T03:19:18.445Z,11.4
2023-02-13T03:21:18.629Z,11.5
2023-02-13T03:23:18.345Z,11.2
2023-02-13T03:25:18.333Z,11.2
2023-02-13T03:27:18.354Z,11.2
2023-02-13T03:29:18.345Z,11.5
2023-02-13T03:31:18.374Z,11.4
2023-02-13T03:33:18.376Z,11.3
2023-02-13T03:35:18.352Z,11.3
2023-02-13T03:37:18.364Z,11.2
2023-02-13T03:39:18.385Z,11.2
2023-02-13T03:41:18.352Z,11.1
2023-02-13T03:43:18.374Z,11.1
2023-02-13T03:45:18.309Z,10.9
2023-02-13T03:47:18.319Z,10.9
2023-02-13T03:49:18.342Z,10.9
2023-02-13T03:51:18.329Z,11.1
2023-02-13T03:53:18.327Z,11
2023-02-13T03:55:18.340Z,10.9
2023-02-13T03:57:18.279Z,10.9
2023-02-13T03:59:18.307Z,10.9
2023-02-13T04:01:18.364Z,10.9
2023-02-13T04:03:18.300Z,10.9
2023-02-13T04:05:18.378Z,11.1
2023-02-13T04:07:18.319Z,11
2023-02-13T04:09:18.284Z,10.9
2023-02-13T04:11:18.296Z,10.8
2023-02-13T04:13:18.289Z,10.7
2023-02-13T04:15:18.278Z,10.8
2023-02-13T04:17:18.261Z,10.8
2023-02-13T04:19:18.310Z,10.9
2023-02-13T04:21:18.282Z,10.9
2023-02-13T04:23:18.295Z,11
2023-02-13T04:25:18.266Z,10.9
2023-02-13T04:27:18.245Z,10.8
2023-02-13T04:29:18.264Z,10.8
2023-02-13T04:31:18.329Z,10.9
2023-02-13T04:33:18.247Z,10.8
2023-02-13T04:35:18.228Z,10.7
2023-02-13T04:37:18.238Z,10.7
2023-02-13T04:39:18.254Z,10.7
2023-02-13T04:41:18.217Z,10.7
2023-02-13T04:43:18.259Z,10.6
2023-02-13T04:45:18.260Z,10.7
2023-02-13T04:47:18.279Z,10.8
2023-02-13T04:49:18.222Z,10.8
2023-02-13T04:51:18.257Z,10.8
2023-02-13T04:53:18.213Z,10.8
2023-02-13T04:55:18.237Z,10.7
2023-02-13T04:57:18.320Z,10.7
2023-02-13T04:59:18.214Z,10.6
2023-02-13T05:01:18.224Z,10.7
2023-02-13T05:03:18.258Z,10.6
2023-02-13T05:05:18.240Z,10.5
2023-02-13T05:07:18.245Z,10.6
2023-02-13T05:09:18.219Z,10.6
2023-02-13T05:11:18.233Z,10.6
2023-02-13T05:13:18.188Z,10.5
2023-02-13T05:15:18.234Z,10.5
2023-02-13T05:17:18.244Z,10.5
2023-02-13T05:19:18.174Z,10.5
2023-02-13T05:21:18.242Z,10.4
2023-02-13T05:23:18.253Z,10.4
2023-02-13T05:25:18.218Z,10.3
2023-02-13T05:27:19.606Z,10.2
2023-02-13T05:29:18.182Z,10.2
2023-02-13T05:31:18.423Z,10.3
2023-02-13T05:33:18.171Z,10.2
2023-02-13T05:35:18.156Z,10.2
2023-02-13T05:37:18.171Z,10
2023-02-13T05:39:18.199Z,10.1
2023-02-13T05:41:18.202Z,10.1
2023-02-13T05:43:18.202Z,10.1
2023-02-13T05:45:18.150Z,10.1
2023-02-13T05:47:18.165Z,10
2023-02-13T05:49:18.178Z,10.1
2023-02-13T05:51:18.176Z,10
2023-02-13T05:53:18.164Z,10.2
2023-02-13T05:55:18.133Z,10.2
2023-02-13T05:57:18.176Z,10.1
2023-02-13T05:59:18.189Z,10.1
2023-02-13T06:01:18.160Z,10.2
2023-02-13T06:03:18.251Z,10.2
2023-02-13T06:05:18.165Z,10.1
2023-02-13T06:07:18.137Z,10.2
2023-02-13T06:09:18.163Z,10.2
2023-02-13T06:11:18.123Z,10.1
2023-02-13T06:13:18.115Z,10.1
2023-02-13T06:15:18.240Z,10
2023-02-13T06:17:18.134Z,9.7
2023-02-13T06:19:18.135Z,9.8
2023-02-13T06:21:18.213Z,9.8
2023-02-13T06:23:18.109Z,9.8
2023-02-13T06:25:18.131Z,9.8
2023-02-13T06:27:18.221Z,9.8
2023-02-13T06:29:18.325Z,9.8
2023-02-13T06:31:18.319Z,9.8
2023-02-13T06:33:18.160Z,9.6
2023-02-13T06:35:18.154Z,9.7
2023-02-13T06:37:18.289Z,9.6
2023-02-13T06:39:18.280Z,9.6
2023-02-13T06:41:18.154Z,9.5
2023-02-13T06:43:18.135Z,9.8
2023-02-13T06:45:18.213Z,9.6
2023-02-13T06:47:18.094Z,9.7
2023-02-13T06:49:18.090Z,9.6
2023-02-13T06:51:22.518Z,9.5
2023-02-13T06:53:18.156Z,9.6
2023-02-13T06:55:18.107Z,9.5
2023-02-13T06:57:18.274Z,9.5
2023-02-13T06:59:18.226Z,9.6
2023-02-13T07:01:18.117Z,9.5
2023-02-13T07:03:18.079Z,9.3
2023-02-13T07:05:18.221Z,9.6
2023-02-13T07:07:18.214Z,9.5
2023-02-13T07:09:20.598Z,9.4
2023-02-13T07:11:18.073Z,9.5
2023-02-13T07:13:18.028Z,9.4
2023-02-13T07:15:18.100Z,9.4
2023-02-13T07:17:18.055Z,9.5
2023-02-13T07:19:18.026Z,9.4
2023-02-13T07:21:18.040Z,9.5
2023-02-13T07:23:18.117Z,9.5
2023-02-13T07:25:18.006Z,9.4
2023-02-13T07:27:18.020Z,9.3
2023-02-13T07:29:18.086Z,9.2
2023-02-13T07:31:18.146Z,9.3
2023-02-13T07:33:18.025Z,9.4
2023-02-13T07:35:18.116Z,9.3
2023-02-13T07:37:18.043Z,9.3
2023-02-13T07:39:17.987Z,9.3
2023-02-13T07:41:18.018Z,9.4
2023-02-13T07:43:18.005Z,9.3
2023-02-13T07:45:18.017Z,9.2
2023-02-13T07:47:20.053Z,9.3
2023-02-13T07:49:18.006Z,9.3
2023-02-13T07:51:18.005Z,9.3
2023-02-13T07:53:17.981Z,9.3
2023-02-13T07:55:18.016Z,9.5
2023-02-13T07:57:18.059Z,9.4
2023-02-13T07:59:18.264Z,9.4
2023-02-13T08:01:18.009Z,9.5
2023-02-13T08:03:18.019Z,9.4
2023-02-13T08:05:18.080Z,9.3
2023-02-13T08:07:18.014Z,9.3
2023-02-13T08:09:19.212Z,9.2
2023-02-13T08:11:17.995Z,9.4
2023-02-13T08:13:17.953Z,9.4
2023-02-13T08:15:18.022Z,9.5
2023-02-13T08:17:17.968Z,9.2
2023-02-13T08:19:17.958Z,9.2
2023-02-13T08:21:17.982Z,9.4
2023-02-13T08:23:18.035Z,9.4
2023-02-13T08:25:17.947Z,9.4
2023-02-13T08:27:17.966Z,9.3
2023-02-13T08:29:17.958Z,9.3
2023-02-13T08:31:18.017Z,9.2
2023-02-13T08:33:17.980Z,9.2
2023-02-13T08:35:17.961Z,9.4
2023-02-13T08:37:18.108Z,9.3
2023-02-13T08:39:17.919Z,9.3
2023-02-13T08:43:17.983Z,9.2
2023-02-13T08:45:17.958Z,9.2
2023-02-13T08:47:19.136Z,9.2
2023-02-13T08:49:17.924Z,9.1
2023-02-13T08:51:17.906Z,9.1
2023-02-13T08:53:17.907Z,9
2023-02-13T08:55:17.945Z,9.1
2023-02-13T08:57:17.912Z,9.3
2023-02-13T08:59:17.951Z,9.4
2023-02-13T09:01:17.959Z,9.2
2023-02-13T09:03:17.928Z,9.2
2023-02-13T09:05:17.928Z,9.2
2023-02-13T09:07:17.965Z,9.3
2023-02-13T09:09:17.909Z,9.3
2023-02-13T09:11:17.929Z,9.4
2023-02-13T09:13:17.916Z,9.3
2023-02-13T09:15:17.918Z,9.3
2023-02-13T09:17:17.911Z,9.2
2023-02-13T09:19:17.879Z,9.2
2023-02-13T09:21:17.870Z,9.3
2023-02-13T09:23:17.876Z,9.4
2023-02-13T09:25:17.863Z,9.3
2023-02-13T09:27:17.871Z,9.2
2023-02-13T09:29:17.902Z,9.3
2023-02-13T09:31:17.984Z,9.5
2023-02-13T09:33:17.901Z,9.3
2023-02-13T09:35:17.875Z,9.4
2023-02-13T09:37:17.857Z,9.5
2023-02-13T09:39:17.896Z,9.5
2023-02-13T09:41:17.839Z,9.4
2023-02-13T09:43:17.882Z,9.4
2023-02-13T09:45:17.863Z,9.4
2023-02-13T09:47:17.877Z,9.1
2023-02-13T09:49:17.881Z,9.1
2023-02-13T09:51:17.864Z,9.2
2023-02-13T09:53:17.836Z,9.3
2023-02-13T09:55:17.880Z,9.2
2023-02-13T09:57:17.857Z,9.3
2023-02-13T09:59:17.825Z,9.4
2023-02-13T10:01:17.918Z,9.3
2023-02-13T10:03:17.865Z,9.3
2023-02-13T10:05:17.879Z,9.3
2023-02-13T10:07:17.804Z,9.2
2023-02-13T10:09:17.833Z,9.2
2023-02-13T10:11:17.834Z,9.2
2023-02-13T10:13:17.814Z,9.1
2023-02-13T10:15:17.830Z,9
2023-02-13T10:17:17.794Z,9
2023-02-13T10:19:17.800Z,9.1
2023-02-13T10:21:17.846Z,9.2
2023-02-13T10:23:19.079Z,9.2
2023-02-13T10:25:19.178Z,9.1
2023-02-13T10:27:17.822Z,9.2
2023-02-13T10:29:17.804Z,9.1
2023-02-13T10:31:17.889Z,9.2
2023-02-13T10:33:17.804Z,9.3
2023-02-13T10:35:17.833Z,9.3
2023-02-13T10:37:17.780Z,9.3
2023-02-13T10:39:17.775Z,9.2
2023-02-13T10:41:17.781Z,9.3
2023-02-13T10:43:17.815Z,9.2
2023-02-13T10:45:17.790Z,9.3
2023-02-13T10:47:17.824Z,9.4
2023-02-13T10:49:17.770Z,9.2
2023-02-13T10:51:19.296Z,9.1
2023-02-13T10:53:17.845Z,9.2
2023-02-13T10:55:17.829Z,9.1
2023-02-13T10:57:17.760Z,9.2
2023-02-13T10:59:17.793Z,9.1
2023-02-13T11:01:17.807Z,9
2023-02-13T11:03:17.762Z,8.8
2023-02-13T11:05:17.756Z,8.7
2023-02-13T11:07:17.753Z,8.8
2023-02-13T11:09:17.762Z,8.8
2023-02-13T11:11:17.767Z,8.9
2023-02-13T11:13:17.723Z,8.7
2023-02-13T11:15:17.830Z,8.9
2023-02-13T11:17:17.746Z,8.7
2023-02-13T11:19:17.862Z,8.7
2023-02-13T11:21:17.774Z,8.7
2023-02-13T11:23:17.735Z,8.7
2023-02-13T11:25:17.741Z,8.6
2023-02-13T11:27:17.744Z,8.6
2023-02-13T11:29:17.732Z,8.6
2023-02-13T11:31:17.838Z,8.8
2023-02-13T11:33:17.699Z,8.7
2023-02-13T11:35:17.700Z,8.7
2023-02-13T11:37:17.693Z,8.8
2023-02-13T11:39:17.738Z,8.8
2023-02-13T11:41:17.868Z,8.9
2023-02-13T11:43:17.711Z,8.9
2023-02-13T11:45:17.886Z,8.8
2023-02-13T11:47:17.778Z,8.9
2023-02-13T11:49:17.721Z,8.8
2023-02-13T11:51:18.750Z,9
2023-02-13T11:53:17.752Z,9
2023-02-13T11:55:17.748Z,8.9
2023-02-13T11:57:18.992Z,8.8
2023-02-13T11:59:17.904Z,8.8
2023-02-13T12:01:21.965Z,8.8
2023-02-13T12:03:22.920Z,8.8
2023-02-13T12:05:19.946Z,8.7
2023-02-13T12:06:03.174Z,8.7
2023-02-13T12:07:17.704Z,8.8
2023-02-13T12:09:22.007Z,8.6
2023-02-13T12:11:00.639Z,8.6
2023-02-13T12:11:17.646Z,8.5
2023-02-13T12:13:23.880Z,8.5
2023-02-13T12:15:17.691Z,8.6
2023-02-13T12:17:30.629Z,8.4
2023-02-13T12:19:17.705Z,8.2
2023-02-13T12:21:19.103Z,8.1
2023-02-13T12:23:17.696Z,8.2
2023-02-13T12:25:19.690Z,8.1
2023-02-13T12:27:17.745Z,8.2
2023-02-13T12:29:17.681Z,8.2
2023-02-13T12:31:17.695Z,8.2
2023-02-13T12:33:17.857Z,8.3
2023-02-13T12:35:17.692Z,8.1
2023-02-13T12:37:17.700Z,8.1
2023-02-13T12:39:18.891Z,8.1
2023-02-13T12:41:17.845Z,8.1
2023-02-13T12:43:17.653Z,8.1
2023-02-13T12:45:17.686Z,8.1
2023-02-13T12:47:19.032Z,7.8
2023-02-13T12:49:17.750Z,7.9
2023-02-13T12:51:20.146Z,7.9
2023-02-13T12:53:17.738Z,7.8
2023-02-13T12:55:17.686Z,7.9
2023-02-13T12:57:17.820Z,7.7
2023-02-13T12:59:17.690Z,7.7
2023-02-13T13:01:17.763Z,7.8
2023-02-13T13:03:17.649Z,7.7
2023-02-13T13:05:17.628Z,7.8
2023-02-13T13:07:17.721Z,7.7
2023-02-13T13:09:18.931Z,8
2023-02-13T13:11:17.692Z,7.9
2023-02-13T13:13:17.742Z,7.9
2023-02-13T13:15:17.639Z,7.8
2023-02-13T13:17:17.779Z,7.9
2023-02-13T13:19:17.669Z,8
2023-02-13T13:21:17.628Z,7.9
2023-02-13T13:23:17.712Z,7.9
2023-02-13T13:25:18.886Z,7.9
2023-02-13T13:27:17.708Z,8
2023-02-13T13:29:17.805Z,8
2023-02-13T13:31:17.700Z,8
2023-02-13T13:33:17.819Z,8.2
2023-02-13T13:35:17.657Z,8.2
2023-02-13T13:37:19.071Z,8.2
2023-02-13T13:39:17.773Z,8.2
2023-02-13T13:41:17.636Z,8.5
2023-02-13T13:43:17.758Z,8.6
2023-02-13T13:45:18.785Z,8.7
2023-02-13T13:47:18.688Z,8.7
2023-02-13T13:49:17.679Z,8.7
2023-02-13T13:51:20.134Z,8.9
2023-02-13T13:53:17.554Z,9
2023-02-13T13:55:17.676Z,9.3
2023-02-13T13:57:17.775Z,9.3
2023-02-13T13:59:19.013Z,9.4
2023-02-13T14:01:13.047Z,9.4
2023-02-13T14:03:17.600Z,9.7
2023-02-13T14:05:17.552Z,9.8
2023-02-13T14:06:30.565Z,9.8
2023-02-13T14:07:17.629Z,9.9
2023-02-13T14:09:17.621Z,10.3
2023-02-13T14:11:17.626Z,10.3
2023-02-13T14:13:17.607Z,10.4
2023-02-13T14:15:17.562Z,10.5
2023-02-13T14:17:17.560Z,10.5
2023-02-13T14:19:18.826Z,10.7
2023-02-13T14:21:17.585Z,10.7
2023-02-13T14:23:17.554Z,10.7
2023-02-13T14:25:17.622Z,10.9
2023-02-13T14:27:17.559Z,10.9
2023-02-13T14:29:17.789Z,10.9
2023-02-13T14:31:17.762Z,11
2023-02-13T14:33:17.595Z,11.2
2023-02-13T14:35:17.699Z,11.4
2023-02-13T14:37:17.648Z,11.3
2023-02-13T14:39:17.838Z,11.5
2023-02-13T14:41:17.545Z,11.6
2023-02-13T14:43:17.782Z,11.6
2023-02-13T14:45:17.624Z,11.9
2023-02-13T14:47:17.640Z,12.2
2023-02-13T14:49:18.814Z,12.2
2023-02-13T14:51:17.724Z,12.2
2023-02-13T14:53:17.746Z,12.4
2023-02-13T14:55:17.613Z,12.2
2023-02-13T14:57:17.757Z,12.2
2023-02-13T14:59:19.015Z,12.6
2023-02-13T15:01:17.735Z,12.6
2023-02-13T15:03:17.517Z,12.6
2023-02-13T15:05:20.194Z,12.7
2023-02-13T15:07:17.558Z,13
2023-02-13T15:09:17.670Z,13.1
2023-02-13T15:11:17.685Z,12.9
2023-02-13T15:13:17.717Z,13
2023-02-13T15:15:17.681Z,13.1
2023-02-13T15:17:17.635Z,13.1
2023-02-13T15:19:17.709Z,13.1
2023-02-13T15:21:17.538Z,13.1
2023-02-13T15:23:17.692Z,13.2
2023-02-13T15:25:17.620Z,13.3
2023-02-13T15:27:17.760Z,13.4
2023-02-13T15:29:26.888Z,13.3
2023-02-13T15:31:18.682Z,13.4
2023-02-13T15:33:17.731Z,13.6
2023-02-13T15:35:17.570Z,13.8
2023-02-13T15:37:17.730Z,13.7
2023-02-13T15:39:17.692Z,13.9
2023-02-13T15:41:18.783Z,13.8
2023-02-13T15:43:17.690Z,13.9
2023-02-13T15:45:17.543Z,14
2023-02-13T15:47:17.576Z,14.2
2023-02-13T15:49:17.618Z,14.4
2023-02-13T15:51:17.539Z,14.4
2023-02-13T15:53:17.569Z,14.4
2023-02-13T15:55:17.666Z,14.1
2023-02-13T15:57:17.594Z,14.1
2023-02-13T15:59:17.736Z,14.3
2023-02-13T16:01:17.669Z,14.3
2023-02-13T16:03:17.565Z,14.5
2023-02-13T16:05:24.059Z,14.7
2023-02-13T16:07:17.606Z,14.6
2023-02-13T16:09:20.443Z,14.7
2023-02-13T16:11:17.539Z,14.8
2023-02-13T16:13:17.544Z,14.9
2023-02-13T16:15:17.487Z,14.9
2023-02-13T16:17:17.656Z,15
2023-02-13T16:19:21.626Z,15.1
2023-02-13T16:21:17.603Z,15.1
2023-02-13T16:23:17.456Z,15.2
2023-02-13T16:25:17.555Z,15
2023-02-13T16:27:26.705Z,15.2
2023-02-13T16:29:17.633Z,15.2
2023-02-13T16:31:17.534Z,15.3
2023-02-13T16:33:17.460Z,15.4
2023-02-13T16:35:17.492Z,15.4
2023-02-13T16:37:17.670Z,15.5
2023-02-13T16:39:17.454Z,15.8
2023-02-13T16:41:17.624Z,16
2023-02-13T16:43:17.571Z,16.1
2023-02-13T16:45:19.072Z,16
2023-02-13T16:47:17.577Z,16.1
2023-02-13T16:49:17.645Z,16.1
2023-02-13T16:51:17.628Z,16.1
2023-02-13T16:53:17.473Z,16
2023-02-13T16:55:17.595Z,16.3
2023-02-13T16:57:17.497Z,16.2
2023-02-13T16:59:17.533Z,16.4
2023-02-13T17:01:17.712Z,16.5
2023-02-13T17:03:17.397Z,16.3
2023-02-13T17:05:17.550Z,16.2
2023-02-13T17:07:17.484Z,16.5
2023-02-13T17:09:17.552Z,16.6
2023-02-13T17:11:17.502Z,16.8
2023-02-13T17:13:17.490Z,16.7
2023-02-13T17:15:18.700Z,16.8
2023-02-13T17:17:17.544Z,16.7
2023-02-13T17:19:17.515Z,16.7
2023-02-13T17:21:17.366Z,17.1
2023-02-13T17:23:17.530Z,17
2023-02-13T17:25:17.482Z,16.9
2023-02-13T17:27:17.526Z,16.9
2023-02-13T17:29:17.346Z,17.3
2023-02-13T17:31:17.594Z,17.2
2023-02-13T17:33:17.438Z,17.4
2023-02-13T17:35:18.476Z,17.4
2023-02-13T17:37:23.278Z,17.3
2023-02-13T17:39:17.256Z,17.2
2023-02-13T17:41:22.673Z,17.4
2023-02-13T17:43:17.297Z,17.3
2023-02-13T17:45:18.698Z,17.3
2023-02-13T17:47:18.723Z,17.2
2023-02-13T17:49:17.307Z,17.2
2023-02-13T17:51:17.305Z,17.3
2023-02-13T17:53:18.560Z,17.4
2023-02-13T17:55:19.145Z,17.5
2023-02-13T17:57:17.341Z,17.6
2023-02-13T17:59:17.280Z,17.6
2023-02-13T18:01:17.322Z,17.6
2023-02-13T18:03:17.274Z,17.8
2023-02-13T18:05:17.332Z,17.6
2023-02-13T18:07:20.219Z,17.5
2023-02-13T18:09:17.354Z,17.5
2023-02-13T18:11:19.710Z,17.8
2023-02-13T18:13:17.397Z,17.7
2023-02-13T18:15:18.297Z,17.9
2023-02-13T18:17:17.281Z,18
2023-02-13T18:19:17.275Z,18.1
2023-02-13T18:21:17.284Z,18
2023-02-13T18:23:17.233Z,18.1
2023-02-13T18:25:17.295Z,18.2
2023-02-13T18:27:17.365Z,18.3
2023-02-13T18:29:17.278Z,18.2
2023-02-13T18:31:17.387Z,18.3
2023-02-13T18:33:17.247Z,18.1
2023-02-13T18:35:17.229Z,18
2023-02-13T18:37:21.100Z,18.2
2023-02-13T18:39:17.299Z,18.3
2023-02-13T18:41:17.294Z,18.5
2023-02-13T18:43:17.296Z,18.6
2023-02-13T18:45:17.284Z,18.6
2023-02-13T18:47:17.279Z,18.8
2023-02-13T18:49:19.911Z,19.1
2023-02-13T18:50:22.202Z,19.1
2023-02-13T18:51:17.246Z,19.1
2023-02-13T18:53:17.689Z,19
2023-02-13T18:55:17.280Z,19.1
2023-02-13T18:57:17.252Z,18.9
2023-02-13T18:59:17.235Z,19
2023-02-13T19:01:17.277Z,19.3
2023-02-13T19:03:21.627Z,19
2023-02-13T19:05:18.440Z,19
2023-02-13T19:07:17.277Z,18.8
2023-02-13T19:09:17.248Z,18.6
2023-02-13T19:11:17.421Z,18.9
2023-02-13T19:13:19.621Z,18.8
2023-02-13T19:15:17.199Z,18.8
2023-02-13T19:17:17.315Z,18.6
2023-02-13T19:19:17.289Z,18.8
2023-02-13T19:21:17.166Z,18.7
2023-02-13T19:23:17.153Z,18.5
2023-02-13T19:25:17.277Z,18.5
2023-02-13T19:27:17.258Z,18.4
2023-02-13T19:29:17.293Z,18.4
2023-02-13T19:31:17.305Z,18.8
2023-02-13T19:33:17.139Z,18.9
2023-02-13T19:35:18.333Z,18.8
2023-02-13T19:37:17.130Z,18.6
2023-02-13T19:39:18.376Z,18.6
2023-02-13T19:41:19.722Z,18.6
2023-02-13T19:43:17.164Z,18.6
2023-02-13T19:45:17.201Z,18.9
2023-02-13T19:47:18.613Z,18.7
2023-02-13T19:49:17.313Z,18.6
2023-02-13T19:51:17.204Z,18.8
2023-02-13T19:53:01.499Z,18.8
2023-02-13T19:53:17.219Z,18.8
2023-02-13T19:55:17.318Z,18.6
2023-02-13T19:57:17.147Z,18.5
2023-02-13T19:59:17.289Z,18.3
2023-02-13T20:01:20.218Z,18.4
2023-02-13T20:03:18.709Z,18.6
2023-02-13T20:05:17.563Z,18.4
2023-02-13T20:07:26.430Z,18.3
2023-02-13T20:08:42.921Z,18.4
2023-02-13T20:10:40.005Z,18.4
2023-02-13T20:12:42.005Z,18.5
2023-02-13T20:14:39.901Z,18.5
2023-02-13T20:16:40.012Z,18.4
2023-02-13T20:18:39.966Z,18.7
2023-02-13T20:20:40.108Z,18.9
2023-02-13T20:22:39.877Z,19
2023-02-13T20:24:40.154Z,18.4
2023-02-13T20:26:40.028Z,18.6
2023-02-13T20:28:41.282Z,18.5
2023-02-13T20:30:47.957Z,18.5
2023-02-13T20:32:40.028Z,18.6
2023-02-13T20:34:56.076Z,18.7
2023-02-13T20:36:39.930Z,18.7
2023-02-13T20:38:39.926Z,18.8
2023-02-13T20:40:41.004Z,18.6
2023-02-13T20:42:39.843Z,18.5
2023-02-13T20:44:39.914Z,18.2
2023-02-13T20:46:39.892Z,18
2023-02-13T20:48:39.900Z,18
2023-02-13T20:50:39.847Z,18
2023-02-13T20:52:39.913Z,18.3
2023-02-13T20:54:41.212Z,18.4
2023-02-13T20:56:40.042Z,18.5
2023-02-13T20:58:40.947Z,18.5
2023-02-13T21:00:39.895Z,18.4
2023-02-13T21:02:40.029Z,18.1
2023-02-13T21:04:40.130Z,17.8
2023-02-13T21:06:41.291Z,18.4
2023-02-13T21:08:40.013Z,18.3
2023-02-13T21:10:39.881Z,18
2023-02-13T21:12:40.014Z,18
2023-02-13T21:14:42.680Z,18
2023-02-13T21:16:39.931Z,17.9
2023-02-13T21:18:39.900Z,18
2023-02-13T21:20:41.291Z,18.2
2023-02-13T21:22:39.890Z,18.3
2023-02-13T21:24:41.147Z,18.5
2023-02-13T21:26:39.757Z,18.5
2023-02-13T21:28:42.227Z,18.2
2023-02-13T21:30:39.923Z,18.2
2023-02-13T21:32:39.839Z,18.4
2023-02-13T21:34:39.856Z,18.6
2023-02-13T21:36:39.869Z,18.5
2023-02-13T21:38:39.847Z,18.3
2023-02-13T21:40:40.010Z,18.1
2023-02-13T21:42:44.251Z,18.4
2023-02-13T21:44:40.001Z,18.1
2023-02-13T21:46:39.964Z,17.9
2023-02-13T21:48:39.821Z,18
2023-02-13T21:50:39.999Z,18.1
2023-02-13T21:52:39.833Z,17.8
2023-02-13T21:54:40.095Z,17.7
2023-02-13T21:56:39.836Z,17.8
2023-02-13T21:58:41.114Z,18.1
2023-02-13T22:00:40.792Z,17.8
2023-02-13T22:02:39.995Z,17.7
2023-02-13T22:04:39.842Z,17.4
2023-02-13T22:06:50.246Z,17.2
2023-02-13T22:08:39.745Z,17.6
2023-02-13T22:10:41.032Z,17.3
2023-02-13T22:12:40.214Z,17.3
2023-02-13T22:14:39.909Z,17.2
2023-02-13T22:16:42.796Z,17.1
2023-02-13T22:18:41.200Z,16.9
2023-02-13T22:20:39.951Z,17
2023-02-13T22:22:39.855Z,16.8
2023-02-13T22:24:39.848Z,16.7
2023-02-13T22:26:39.818Z,16.4
2023-02-13T22:28:44.208Z,16.4
2023-02-13T22:30:39.977Z,16.4
2023-02-13T22:32:39.740Z,16.3
2023-02-13T22:34:40.956Z,16.2
2023-02-13T22:36:44.703Z,16.1
2023-02-13T22:38:39.889Z,16
2023-02-13T22:40:41.460Z,15.9
2023-02-13T22:42:42.341Z,15.8
2023-02-13T22:44:41.269Z,15.8
2023-02-13T22:46:41.086Z,15.7
2023-02-13T22:48:39.863Z,15.8
2023-02-13T22:50:39.848Z,15.6
2023-02-13T22:52:38.279Z,15.6
2023-02-13T22:54:39.675Z,15.5
2023-02-13T22:56:39.744Z,15.5
2023-02-13T22:58:43.889Z,15.4
2023-02-13T23:00:39.706Z,15.3
2023-02-13T23:02:41.820Z,15.3
2023-02-13T23:04:39.870Z,15.2
2023-02-13T23:06:39.667Z,15.1
2023-02-13T23:08:39.761Z,15
2023-02-13T23:10:03.766Z,15
2023-02-13T23:11:43.176Z,15
2023-02-13T23:13:43.241Z,15
2023-02-13T23:15:46.129Z,14.9
2023-02-13T23:17:43.109Z,14.8
2023-02-13T23:19:43.357Z,14.8
2023-02-13T23:21:42.994Z,14.8
2023-02-13T23:23:44.336Z,14.6
2023-02-13T23:25:43.036Z,14.6
2023-02-13T23:27:42.975Z,14.6
2023-02-13T23:29:42.987Z,14.5
2023-02-13T23:31:43.024Z,14.5
2023-02-13T23:33:43.120Z,14.5
2023-02-13T23:35:43.075Z,14.4
2023-02-13T23:37:42.948Z,14.4
2023-02-13T23:39:42.955Z,14.4
2023-02-13T23:41:43.045Z,14.3
2023-02-13T23:43:43.161Z,14.2
2023-02-13T23:45:42.983Z,14.2
2023-02-13T23:47:43.043Z,14.1
2023-02-13T23:49:42.937Z,14.1
2023-02-13T23:51:43.247Z,14.1
2023-02-13T23:53:42.945Z,14
2023-02-13T23:55:42.932Z,13.9
2023-02-13T23:57:43.260Z,13.9
2023-02-13T23:59:42.956Z,13.8
